This is the latest recevied weather packets stored in our database for station/object W6JCZ-13. If no packets are shown the sender has not sent any weather packets the latest 10 day(s).
| Time | Temp. | Humidity | Pressure | Rain* | Wind** | Luminosity | Snow |
|---|---|---|---|---|---|---|---|
| 1778199316 | 28.33° C | 57% | 1012.5 hPa | 0 mm | - | - | - |
| 1778198716 | 28.33° C | 55% | 1012.6 hPa | 0 mm | - | - | - |
| 1778198116 | 28.33° C | 56% | 1012.7 hPa | 0 mm | - | - | - |
| 1778197516 | 27.78° C | 57% | 1012.8 hPa | 0 mm | - | - | - |
| 1778196916 | 28.33° C | 56% | 1012.9 hPa | 0 mm | - | - | - |
| 1778196316 | 28.33° C | 56% | 1013.1 hPa | 0 mm | - | - | - |
| 1778195718 | 28.33° C | 54% | 1013.1 hPa | 0 mm | - | - | - |
| 1778195118 | 28.33° C | 58% | 1013.3 hPa | 0 mm | - | - | - |
| 1778194518 | 27.78° C | 58% | 1013.5 hPa | 0 mm | - | - | - |
| 1778193918 | 27.78° C | 56% | 1013.6 hPa | 0 mm | - | - | - |
| 1778193318 | 28.33° C | 56% | 1013.8 hPa | 0 mm | - | - | - |
| 1778192718 | 28.33° C | 56% | 1014.1 hPa | 0 mm | - | - | - |
| 1778192117 | 27.78° C | 59% | 1014.2 hPa | 0 mm | - | - | - |
| 1778191517 | 27.22° C | 58% | 1014.4 hPa | 0 mm | - | - | - |
| 1778190918 | 27.22° C | 58% | 1014.6 hPa | 0 mm | - | - | - |
| 1778190317 | 27.22° C | 64% | 1014.8 hPa | 0 mm | - | - | - |
| 1778189718 | 27.22° C | 58% | 1014.8 hPa | 0 mm | - | - | - |
| 1778189117 | 26.67° C | 59% | 1015 hPa | 0 mm | - | - | - |
| 1778188518 | 27.22° C | 59% | 1015.1 hPa | 0 mm | - | - | - |
| 1778187917 | 26.67° C | 61% | 1015.2 hPa | 0 mm | - | - | - |
| 1778187317 | 26.11° C | 60% | 1015.3 hPa | 0 mm | - | - | - |
| 1778186717 | 26.11° C | 63% | 1015.5 hPa | 0 mm | - | - | - |
| 1778186117 | 26.11° C | 64% | 1015.6 hPa | 0 mm | - | - | - |
| 1778185517 | 25.56° C | 62% | 1015.6 hPa | 0 mm | - | - | - |
| 1778184917 | 25.56° C | 63% | 1015.8 hPa | 0 mm | - | - | - |
* Rain latest hour (hover to see other rain measurements)
** Current wind speed in m/s (hover to see current wind gust speed)